sensor_id;sensor_type;location;lat;lon;timestamp;P1;durP1;ratioP1;P2;durP2;ratioP2
36415;SDS011;22447;44.530;18.620;2023-12-28T00:01:36;489.58;;;200.75;;
36415;SDS011;22447;44.530;18.620;2023-12-28T00:04:02;473.20;;;198.40;;
36415;SDS011;22447;44.530;18.620;2023-12-28T00:06:28;425.52;;;178.25;;
36415;SDS011;22447;44.530;18.620;2023-12-28T00:08:54;467.58;;;199.35;;
36415;SDS011;22447;44.530;18.620;2023-12-28T00:11:20;413.90;;;187.75;;
36415;SDS011;22447;44.530;18.620;2023-12-28T00:13:46;375.90;;;172.77;;
36415;SDS011;22447;44.530;18.620;2023-12-28T00:16:11;444.73;;;195.45;;
36415;SDS011;22447;44.530;18.620;2023-12-28T00:18:37;409.50;;;178.90;;
36415;SDS011;22447;44.530;18.620;2023-12-28T00:21:03;410.02;;;181.85;;
36415;SDS011;22447;44.530;18.620;2023-12-28T00:23:29;455.65;;;201.20;;
36415;SDS011;22447;44.530;18.620;2023-12-28T00:25:55;438.75;;;192.73;;
36415;SDS011;22447;44.530;18.620;2023-12-28T00:28:21;451.90;;;202.20;;
36415;SDS011;22447;44.530;18.620;2023-12-28T00:30:47;458.08;;;206.57;;
36415;SDS011;22447;44.530;18.620;2023-12-28T00:33:13;412.23;;;182.18;;
36415;SDS011;22447;44.530;18.620;2023-12-28T00:35:39;336.20;;;149.40;;
36415;SDS011;22447;44.530;18.620;2023-12-28T00:38:04;326.15;;;143.68;;
36415;SDS011;22447;44.530;18.620;2023-12-28T00:40:30;313.77;;;146.75;;
36415;SDS011;22447;44.530;18.620;2023-12-28T00:42:56;297.65;;;136.95;;
36415;SDS011;22447;44.530;18.620;2023-12-28T00:45:23;293.45;;;135.55;;
36415;SDS011;22447;44.530;18.620;2023-12-28T00:47:49;292.92;;;140.45;;
36415;SDS011;22447;44.530;18.620;2023-12-28T00:50:17;275.92;;;133.52;;
36415;SDS011;22447;44.530;18.620;2023-12-28T00:52:43;305.10;;;141.38;;
36415;SDS011;22447;44.530;18.620;2023-12-28T00:55:10;327.83;;;145.57;;
36415;SDS011;22447;44.530;18.620;2023-12-28T00:57:36;333.38;;;146.45;;
36415;SDS011;22447;44.530;18.620;2023-12-28T01:00:02;333.13;;;144.98;;
36415;SDS011;22447;44.530;18.620;2023-12-28T01:02:28;367.65;;;156.93;;
36415;SDS011;22447;44.530;18.620;2023-12-28T01:04:54;359.90;;;158.50;;
36415;SDS011;22447;44.530;18.620;2023-12-28T01:07:20;333.00;;;147.73;;
36415;SDS011;22447;44.530;18.620;2023-12-28T01:09:45;283.65;;;129.15;;
36415;SDS011;22447;44.530;18.620;2023-12-28T01:12:11;279.83;;;127.72;;
36415;SDS011;22447;44.530;18.620;2023-12-28T01:14:37;255.32;;;117.15;;
36415;SDS011;22447;44.530;18.620;2023-12-28T01:17:03;235.80;;;112.90;;
36415;SDS011;22447;44.530;18.620;2023-12-28T01:19:29;207.77;;;100.15;;
36415;SDS011;22447;44.530;18.620;2023-12-28T01:21:55;209.63;;;95.95;;
36415;SDS011;22447;44.530;18.620;2023-12-28T01:24:21;215.90;;;103.78;;
36415;SDS011;22447;44.530;18.620;2023-12-28T01:26:47;199.52;;;96.93;;
36415;SDS011;22447;44.530;18.620;2023-12-28T01:29:12;201.70;;;99.63;;
36415;SDS011;22447;44.530;18.620;2023-12-28T01:31:38;221.50;;;107.78;;
36415;SDS011;22447;44.530;18.620;2023-12-28T01:34:05;216.07;;;105.57;;
36415;SDS011;22447;44.530;18.620;2023-12-28T01:36:32;210.55;;;99.45;;
36415;SDS011;22447;44.530;18.620;2023-12-28T01:38:58;213.68;;;103.85;;
36415;SDS011;22447;44.530;18.620;2023-12-28T01:41:24;211.02;;;104.80;;
36415;SDS011;22447;44.530;18.620;2023-12-28T01:43:51;203.80;;;102.50;;
36415;SDS011;22447;44.530;18.620;2023-12-28T01:46:18;212.00;;;99.53;;
36415;SDS011;22447;44.530;18.620;2023-12-28T01:48:46;184.57;;;91.53;;
36415;SDS011;22447;44.530;18.620;2023-12-28T01:51:15;199.35;;;95.28;;
36415;SDS011;22447;44.530;18.620;2023-12-28T01:53:44;212.77;;;102.28;;
36415;SDS011;22447;44.530;18.620;2023-12-28T01:56:12;232.10;;;120.70;;
36415;SDS011;22447;44.530;18.620;2023-12-28T01:58:41;231.27;;;112.40;;
36415;SDS011;22447;44.530;18.620;2023-12-28T02:01:10;230.20;;;116.22;;
36415;SDS011;22447;44.530;18.620;2023-12-28T02:03:36;230.50;;;112.70;;
36415;SDS011;22447;44.530;18.620;2023-12-28T02:06:02;222.70;;;108.20;;
36415;SDS011;22447;44.530;18.620;2023-12-28T02:08:29;206.27;;;106.45;;
36415;SDS011;22447;44.530;18.620;2023-12-28T02:10:55;220.05;;;105.43;;
36415;SDS011;22447;44.530;18.620;2023-12-28T02:13:21;194.85;;;96.45;;
36415;SDS011;22447;44.530;18.620;2023-12-28T02:15:49;195.82;;;96.85;;
36415;SDS011;22447;44.530;18.620;2023-12-28T02:18:38;200.20;;;98.70;;
36415;SDS011;22447;44.530;18.620;2023-12-28T02:21:13;208.93;;;101.97;;
36415;SDS011;22447;44.530;18.620;2023-12-28T02:23:45;203.35;;;99.70;;
36415;SDS011;22447;44.530;18.620;2023-12-28T02:26:17;220.88;;;106.88;;
36415;SDS011;22447;44.530;18.620;2023-12-28T02:28:44;221.15;;;107.82;;
36415;SDS011;22447;44.530;18.620;2023-12-28T02:31:19;236.13;;;116.63;;
36415;SDS011;22447;44.530;18.620;2023-12-28T02:34:02;253.88;;;119.90;;
36415;SDS011;22447;44.530;18.620;2023-12-28T02:36:34;253.88;;;120.00;;
36415;SDS011;22447;44.530;18.620;2023-12-28T02:39:03;258.10;;;122.30;;
36415;SDS011;22447;44.530;18.620;2023-12-28T02:41:30;268.33;;;127.93;;
36415;SDS011;22447;44.530;18.620;2023-12-28T02:43:57;293.27;;;144.63;;
36415;SDS011;22447;44.530;18.620;2023-12-28T02:46:23;292.90;;;142.05;;
36415;SDS011;22447;44.530;18.620;2023-12-28T02:48:49;278.35;;;134.68;;
36415;SDS011;22447;44.530;18.620;2023-12-28T02:51:16;297.98;;;144.93;;
36415;SDS011;22447;44.530;18.620;2023-12-28T02:53:42;305.30;;;143.60;;
36415;SDS011;22447;44.530;18.620;2023-12-28T02:56:07;296.48;;;139.10;;
36415;SDS011;22447;44.530;18.620;2023-12-28T02:58:33;277.92;;;134.77;;
36415;SDS011;22447;44.530;18.620;2023-12-28T03:00:59;274.50;;;134.65;;
36415;SDS011;22447;44.530;18.620;2023-12-28T03:03:25;256.27;;;118.93;;
36415;SDS011;22447;44.530;18.620;2023-12-28T03:05:51;281.80;;;133.25;;
36415;SDS011;22447;44.530;18.620;2023-12-28T03:08:16;266.98;;;129.50;;
36415;SDS011;22447;44.530;18.620;2023-12-28T03:10:42;259.67;;;125.78;;
36415;SDS011;22447;44.530;18.620;2023-12-28T03:13:08;260.60;;;126.25;;
36415;SDS011;22447;44.530;18.620;2023-12-28T03:15:34;253.00;;;126.78;;
36415;SDS011;22447;44.530;18.620;2023-12-28T03:18:00;264.58;;;130.57;;
36415;SDS011;22447;44.530;18.620;2023-12-28T03:20:26;261.20;;;129.25;;
36415;SDS011;22447;44.530;18.620;2023-12-28T03:22:51;272.77;;;128.80;;
36415;SDS011;22447;44.530;18.620;2023-12-28T03:25:19;273.20;;;132.05;;
36415;SDS011;22447;44.530;18.620;2023-12-28T03:27:45;265.77;;;124.22;;
36415;SDS011;22447;44.530;18.620;2023-12-28T03:30:11;246.82;;;118.72;;
36415;SDS011;22447;44.530;18.620;2023-12-28T03:32:37;268.42;;;129.80;;
36415;SDS011;22447;44.530;18.620;2023-12-28T03:35:03;276.02;;;133.90;;
36415;SDS011;22447;44.530;18.620;2023-12-28T03:37:30;262.70;;;128.65;;
36415;SDS011;22447;44.530;18.620;2023-12-28T03:39:56;259.80;;;124.18;;
36415;SDS011;22447;44.530;18.620;2023-12-28T03:42:22;273.23;;;130.25;;
36415;SDS011;22447;44.530;18.620;2023-12-28T03:44:48;291.38;;;139.38;;
36415;SDS011;22447;44.530;18.620;2023-12-28T03:47:14;265.23;;;125.57;;
36415;SDS011;22447;44.530;18.620;2023-12-28T03:49:41;290.92;;;134.65;;
36415;SDS011;22447;44.530;18.620;2023-12-28T03:52:06;285.73;;;132.63;;
36415;SDS011;22447;44.530;18.620;2023-12-28T03:54:32;261.00;;;124.57;;
36415;SDS011;22447;44.530;18.620;2023-12-28T03:56:58;249.48;;;112.85;;
36415;SDS011;22447;44.530;18.620;2023-12-28T03:59:24;243.30;;;112.80;;
36415;SDS011;22447;44.530;18.620;2023-12-28T04:01:50;231.63;;;107.30;;
36415;SDS011;22447;44.530;18.620;2023-12-28T04:04:16;208.20;;;101.00;;
36415;SDS011;22447;44.530;18.620;2023-12-28T04:06:42;201.02;;;95.53;;
36415;SDS011;22447;44.530;18.620;2023-12-28T04:09:11;211.52;;;102.50;;
36415;SDS011;22447;44.530;18.620;2023-12-28T04:11:37;219.65;;;103.72;;
36415;SDS011;22447;44.530;18.620;2023-12-28T04:14:03;223.48;;;105.82;;
36415;SDS011;22447;44.530;18.620;2023-12-28T04:16:29;231.60;;;107.75;;
36415;SDS011;22447;44.530;18.620;2023-12-28T04:18:55;226.85;;;105.93;;
36415;SDS011;22447;44.530;18.620;2023-12-28T04:21:21;210.60;;;102.25;;
36415;SDS011;22447;44.530;18.620;2023-12-28T04:23:47;231.48;;;105.75;;
36415;SDS011;22447;44.530;18.620;2023-12-28T04:26:12;208.98;;;99.55;;
36415;SDS011;22447;44.530;18.620;2023-12-28T04:28:38;211.05;;;103.38;;
36415;SDS011;22447;44.530;18.620;2023-12-28T04:31:05;227.75;;;101.63;;
36415;SDS011;22447;44.530;18.620;2023-12-28T04:33:32;289.83;;;115.38;;
36415;SDS011;22447;44.530;18.620;2023-12-28T04:36:01;297.27;;;119.20;;
36415;SDS011;22447;44.530;18.620;2023-12-28T04:38:31;286.30;;;105.57;;
36415;SDS011;22447;44.530;18.620;2023-12-28T04:40:59;262.33;;;107.43;;
36415;SDS011;22447;44.530;18.620;2023-12-28T04:43:25;180.23;;;78.55;;
36415;SDS011;22447;44.530;18.620;2023-12-28T04:45:51;204.25;;;84.82;;
36415;SDS011;22447;44.530;18.620;2023-12-28T04:48:17;198.27;;;89.88;;
36415;SDS011;22447;44.530;18.620;2023-12-28T04:50:49;208.05;;;95.60;;
36415;SDS011;22447;44.530;18.620;2023-12-28T04:53:15;197.02;;;90.32;;
36415;SDS011;22447;44.530;18.620;2023-12-28T04:55:41;183.63;;;85.63;;
36415;SDS011;22447;44.530;18.620;2023-12-28T04:58:07;190.30;;;85.45;;
36415;SDS011;22447;44.530;18.620;2023-12-28T05:00:33;187.45;;;87.97;;
36415;SDS011;22447;44.530;18.620;2023-12-28T05:02:59;210.40;;;93.75;;
36415;SDS011;22447;44.530;18.620;2023-12-28T05:05:25;222.45;;;99.68;;
36415;SDS011;22447;44.530;18.620;2023-12-28T05:07:51;240.20;;;101.38;;
36415;SDS011;22447;44.530;18.620;2023-12-28T05:10:17;270.13;;;111.13;;
36415;SDS011;22447;44.530;18.620;2023-12-28T05:12:42;205.00;;;95.55;;
36415;SDS011;22447;44.530;18.620;2023-12-28T05:15:09;239.00;;;107.57;;
36415;SDS011;22447;44.530;18.620;2023-12-28T05:17:35;222.77;;;96.53;;
36415;SDS011;22447;44.530;18.620;2023-12-28T05:20:00;228.13;;;101.43;;
36415;SDS011;22447;44.530;18.620;2023-12-28T05:22:28;220.88;;;98.00;;
36415;SDS011;22447;44.530;18.620;2023-12-28T05:24:53;230.45;;;98.78;;
36415;SDS011;22447;44.530;18.620;2023-12-28T05:27:19;221.02;;;97.20;;
36415;SDS011;22447;44.530;18.620;2023-12-28T05:29:45;243.60;;;101.32;;
36415;SDS011;22447;44.530;18.620;2023-12-28T05:32:11;210.95;;;91.95;;
36415;SDS011;22447;44.530;18.620;2023-12-28T05:34:37;286.67;;;118.30;;
36415;SDS011;22447;44.530;18.620;2023-12-28T05:37:02;233.98;;;101.43;;
36415;SDS011;22447;44.530;18.620;2023-12-28T05:39:28;242.57;;;110.90;;
36415;SDS011;22447;44.530;18.620;2023-12-28T05:41:54;276.48;;;119.28;;
36415;SDS011;22447;44.530;18.620;2023-12-28T05:44:20;268.17;;;112.85;;
36415;SDS011;22447;44.530;18.620;2023-12-28T05:46:46;313.60;;;114.28;;
36415;SDS011;22447;44.530;18.620;2023-12-28T05:49:12;349.38;;;122.70;;
36415;SDS011;22447;44.530;18.620;2023-12-28T05:51:38;440.98;;;135.02;;
36415;SDS011;22447;44.530;18.620;2023-12-28T05:54:07;364.48;;;127.45;;
36415;SDS011;22447;44.530;18.620;2023-12-28T05:56:34;385.90;;;129.73;;
36415;SDS011;22447;44.530;18.620;2023-12-28T05:59:00;252.25;;;102.72;;
36415;SDS011;22447;44.530;18.620;2023-12-28T06:01:26;331.83;;;124.53;;
36415;SDS011;22447;44.530;18.620;2023-12-28T06:03:52;355.23;;;129.95;;
36415;SDS011;22447;44.530;18.620;2023-12-28T06:06:19;336.42;;;125.10;;
36415;SDS011;22447;44.530;18.620;2023-12-28T06:08:45;362.88;;;127.60;;
36415;SDS011;22447;44.530;18.620;2023-12-28T06:11:11;387.98;;;133.52;;
36415;SDS011;22447;44.530;18.620;2023-12-28T06:13:37;397.17;;;148.57;;
36415;SDS011;22447;44.530;18.620;2023-12-28T06:16:03;394.50;;;145.48;;
36415;SDS011;22447;44.530;18.620;2023-12-28T06:18:29;356.25;;;142.88;;
36415;SDS011;22447;44.530;18.620;2023-12-28T06:20:55;295.38;;;122.70;;
36415;SDS011;22447;44.530;18.620;2023-12-28T06:23:21;326.90;;;127.93;;
36415;SDS011;22447;44.530;18.620;2023-12-28T06:25:47;329.50;;;121.55;;
36415;SDS011;22447;44.530;18.620;2023-12-28T06:28:13;295.63;;;120.55;;
36415;SDS011;22447;44.530;18.620;2023-12-28T06:30:38;354.55;;;128.77;;
36415;SDS011;22447;44.530;18.620;2023-12-28T06:33:05;322.80;;;123.82;;
36415;SDS011;22447;44.530;18.620;2023-12-28T06:35:31;345.80;;;127.07;;
36415;SDS011;22447;44.530;18.620;2023-12-28T06:37:56;353.05;;;124.63;;
36415;SDS011;22447;44.530;18.620;2023-12-28T06:40:22;397.70;;;134.93;;
36415;SDS011;22447;44.530;18.620;2023-12-28T06:42:48;313.25;;;122.53;;
36415;SDS011;22447;44.530;18.620;2023-12-28T06:45:14;332.15;;;120.53;;
36415;SDS011;22447;44.530;18.620;2023-12-28T06:47:40;358.40;;;125.68;;
36415;SDS011;22447;44.530;18.620;2023-12-28T06:50:06;239.82;;;90.82;;
36415;SDS011;22447;44.530;18.620;2023-12-28T06:52:32;195.27;;;79.80;;
36415;SDS011;22447;44.530;18.620;2023-12-28T06:54:58;177.75;;;72.28;;
36415;SDS011;22447;44.530;18.620;2023-12-28T06:57:24;231.40;;;92.85;;
36415;SDS011;22447;44.530;18.620;2023-12-28T06:59:50;248.10;;;107.47;;
36415;SDS011;22447;44.530;18.620;2023-12-28T07:02:17;261.02;;;111.03;;
36415;SDS011;22447;44.530;18.620;2023-12-28T07:04:43;243.68;;;109.75;;
36415;SDS011;22447;44.530;18.620;2023-12-28T07:07:09;276.27;;;119.93;;
36415;SDS011;22447;44.530;18.620;2023-12-28T07:09:35;298.42;;;135.73;;
36415;SDS011;22447;44.530;18.620;2023-12-28T07:12:01;312.50;;;144.43;;
36415;SDS011;22447;44.530;18.620;2023-12-28T07:14:27;337.48;;;130.77;;
36415;SDS011;22447;44.530;18.620;2023-12-28T07:16:53;339.20;;;133.05;;
36415;SDS011;22447;44.530;18.620;2023-12-28T07:19:19;348.73;;;131.20;;
36415;SDS011;22447;44.530;18.620;2023-12-28T07:21:44;285.92;;;116.43;;
36415;SDS011;22447;44.530;18.620;2023-12-28T07:24:10;276.15;;;111.85;;
36415;SDS011;22447;44.530;18.620;2023-12-28T07:26:36;362.75;;;138.38;;
36415;SDS011;22447;44.530;18.620;2023-12-28T07:29:02;308.25;;;133.55;;
36415;SDS011;22447;44.530;18.620;2023-12-28T07:31:29;361.98;;;144.00;;
36415;SDS011;22447;44.530;18.620;2023-12-28T07:33:56;365.60;;;139.70;;
36415;SDS011;22447;44.530;18.620;2023-12-28T07:36:24;443.90;;;168.48;;
36415;SDS011;22447;44.530;18.620;2023-12-28T07:38:49;545.33;;;199.38;;
36415;SDS011;22447;44.530;18.620;2023-12-28T07:41:15;472.92;;;177.80;;
36415;SDS011;22447;44.530;18.620;2023-12-28T07:43:41;409.65;;;154.10;;
36415;SDS011;22447;44.530;18.620;2023-12-28T07:46:07;608.92;;;197.45;;
36415;SDS011;22447;44.530;18.620;2023-12-28T07:48:33;433.50;;;157.88;;
36415;SDS011;22447;44.530;18.620;2023-12-28T07:51:03;488.58;;;177.95;;
36415;SDS011;22447;44.530;18.620;2023-12-28T07:53:30;524.25;;;186.32;;
36415;SDS011;22447;44.530;18.620;2023-12-28T07:55:56;533.53;;;186.70;;
36415;SDS011;22447;44.530;18.620;2023-12-28T07:58:22;499.05;;;183.25;;
36415;SDS011;22447;44.530;18.620;2023-12-28T08:00:48;510.50;;;171.82;;
36415;SDS011;22447;44.530;18.620;2023-12-28T08:03:14;471.00;;;153.32;;
36415;SDS011;22447;44.530;18.620;2023-12-28T08:05:43;586.38;;;189.23;;
36415;SDS011;22447;44.530;18.620;2023-12-28T08:08:08;466.83;;;159.77;;
36415;SDS011;22447;44.530;18.620;2023-12-28T08:10:34;307.42;;;127.30;;
36415;SDS011;22447;44.530;18.620;2023-12-28T08:13:00;533.20;;;152.45;;
36415;SDS011;22447;44.530;18.620;2023-12-28T08:15:26;308.23;;;118.78;;
36415;SDS011;22447;44.530;18.620;2023-12-28T08:17:52;310.10;;;123.85;;
36415;SDS011;22447;44.530;18.620;2023-12-28T08:20:18;291.02;;;116.03;;
36415;SDS011;22447;44.530;18.620;2023-12-28T08:22:44;472.48;;;134.93;;
36415;SDS011;22447;44.530;18.620;2023-12-28T08:25:09;402.67;;;128.52;;
36415;SDS011;22447;44.530;18.620;2023-12-28T08:27:35;407.88;;;130.18;;
36415;SDS011;22447;44.530;18.620;2023-12-28T08:30:01;428.77;;;136.10;;
36415;SDS011;22447;44.530;18.620;2023-12-28T08:32:28;287.55;;;102.75;;
36415;SDS011;22447;44.530;18.620;2023-12-28T08:34:53;285.10;;;113.03;;
36415;SDS011;22447;44.530;18.620;2023-12-28T08:37:19;282.45;;;105.57;;
36415;SDS011;22447;44.530;18.620;2023-12-28T08:39:45;260.73;;;101.15;;
36415;SDS011;22447;44.530;18.620;2023-12-28T08:42:11;375.25;;;109.55;;
36415;SDS011;22447;44.530;18.620;2023-12-28T08:44:37;247.13;;;101.00;;
36415;SDS011;22447;44.530;18.620;2023-12-28T08:47:03;251.93;;;107.05;;
36415;SDS011;22447;44.530;18.620;2023-12-28T08:49:29;338.60;;;121.20;;
36415;SDS011;22447;44.530;18.620;2023-12-28T08:51:55;401.90;;;130.40;;
36415;SDS011;22447;44.530;18.620;2023-12-28T08:54:21;326.73;;;127.25;;
36415;SDS011;22447;44.530;18.620;2023-12-28T08:56:46;344.80;;;127.40;;
36415;SDS011;22447;44.530;18.620;2023-12-28T08:59:13;322.45;;;130.13;;
36415;SDS011;22447;44.530;18.620;2023-12-28T09:01:39;414.35;;;142.95;;
36415;SDS011;22447;44.530;18.620;2023-12-28T09:04:05;325.27;;;125.15;;
36415;SDS011;22447;44.530;18.620;2023-12-28T09:06:31;310.23;;;122.82;;
36415;SDS011;22447;44.530;18.620;2023-12-28T09:08:56;316.60;;;126.43;;
36415;SDS011;22447;44.530;18.620;2023-12-28T09:11:23;264.65;;;116.28;;
36415;SDS011;22447;44.530;18.620;2023-12-28T09:13:49;372.88;;;120.47;;
36415;SDS011;22447;44.530;18.620;2023-12-28T09:16:15;276.98;;;111.72;;
36415;SDS011;22447;44.530;18.620;2023-12-28T09:18:41;329.70;;;114.57;;
36415;SDS011;22447;44.530;18.620;2023-12-28T09:21:07;302.05;;;109.75;;
36415;SDS011;22447;44.530;18.620;2023-12-28T09:23:34;367.90;;;120.53;;
36415;SDS011;22447;44.530;18.620;2023-12-28T09:26:00;356.98;;;119.78;;
36415;SDS011;22447;44.530;18.620;2023-12-28T09:28:30;349.67;;;133.18;;
36415;SDS011;22447;44.530;18.620;2023-12-28T09:30:57;363.75;;;141.32;;
36415;SDS011;22447;44.530;18.620;2023-12-28T09:33:22;342.10;;;136.70;;
36415;SDS011;22447;44.530;18.620;2023-12-28T09:35:49;379.35;;;143.63;;
36415;SDS011;22447;44.530;18.620;2023-12-28T09:38:15;367.63;;;143.05;;
36415;SDS011;22447;44.530;18.620;2023-12-28T09:40:41;336.80;;;129.75;;
36415;SDS011;22447;44.530;18.620;2023-12-28T09:43:23;353.15;;;138.20;;
36415;SDS011;22447;44.530;18.620;2023-12-28T09:45:53;342.70;;;137.52;;
36415;SDS011;22447;44.530;18.620;2023-12-28T09:48:20;309.33;;;121.78;;
36415;SDS011;22447;44.530;18.620;2023-12-28T09:50:53;338.02;;;135.95;;
36415;SDS011;22447;44.530;18.620;2023-12-28T09:53:22;328.60;;;124.35;;
36415;SDS011;22447;44.530;18.620;2023-12-28T09:55:48;338.50;;;135.63;;
36415;SDS011;22447;44.530;18.620;2023-12-28T09:58:17;297.80;;;129.18;;
36415;SDS011;22447;44.530;18.620;2023-12-28T10:00:45;325.65;;;135.32;;
36415;SDS011;22447;44.530;18.620;2023-12-28T10:03:15;275.23;;;122.60;;
36415;SDS011;22447;44.530;18.620;2023-12-28T10:05:42;252.95;;;119.60;;
36415;SDS011;22447;44.530;18.620;2023-12-28T10:08:12;261.67;;;117.55;;
36415;SDS011;22447;44.530;18.620;2023-12-28T10:10:41;265.95;;;120.93;;
36415;SDS011;22447;44.530;18.620;2023-12-28T10:13:09;283.52;;;125.72;;
36415;SDS011;22447;44.530;18.620;2023-12-28T10:15:36;273.88;;;122.20;;
36415;SDS011;22447;44.530;18.620;2023-12-28T10:18:03;321.30;;;126.32;;
36415;SDS011;22447;44.530;18.620;2023-12-28T10:20:30;289.98;;;129.25;;
36415;SDS011;22447;44.530;18.620;2023-12-28T10:22:57;276.35;;;120.07;;
36415;SDS011;22447;44.530;18.620;2023-12-28T10:25:23;266.17;;;123.47;;
36415;SDS011;22447;44.530;18.620;2023-12-28T10:27:52;253.57;;;113.28;;
36415;SDS011;22447;44.530;18.620;2023-12-28T10:30:22;274.88;;;122.35;;
36415;SDS011;22447;44.530;18.620;2023-12-28T10:32:48;246.55;;;114.45;;
36415;SDS011;22447;44.530;18.620;2023-12-28T10:35:14;244.60;;;116.53;;
36415;SDS011;22447;44.530;18.620;2023-12-28T10:37:40;256.45;;;116.82;;
36415;SDS011;22447;44.530;18.620;2023-12-28T10:40:11;257.47;;;120.47;;
36415;SDS011;22447;44.530;18.620;2023-12-28T10:42:51;246.10;;;116.80;;
36415;SDS011;22447;44.530;18.620;2023-12-28T10:45:20;237.90;;;112.97;;
36415;SDS011;22447;44.530;18.620;2023-12-28T10:47:53;260.75;;;116.15;;
36415;SDS011;22447;44.530;18.620;2023-12-28T10:53:04;271.13;;;127.75;;
36415;SDS011;22447;44.530;18.620;2023-12-28T10:58:48;267.40;;;124.68;;
36415;SDS011;22447;44.530;18.620;2023-12-28T11:01:17;289.60;;;126.63;;
36415;SDS011;22447;44.530;18.620;2023-12-28T11:06:35;310.00;;;137.80;;
36415;SDS011;22447;44.530;18.620;2023-12-28T11:09:03;312.02;;;142.82;;
36415;SDS011;22447;44.530;18.620;2023-12-28T11:11:32;277.67;;;132.88;;
36415;SDS011;22447;44.530;18.620;2023-12-28T11:13:59;281.15;;;135.40;;
36415;SDS011;22447;44.530;18.620;2023-12-28T11:16:25;289.27;;;136.80;;
36415;SDS011;22447;44.530;18.620;2023-12-28T11:18:53;251.45;;;123.95;;
36415;SDS011;22447;44.530;18.620;2023-12-28T11:21:20;252.85;;;125.82;;
36415;SDS011;22447;44.530;18.620;2023-12-28T11:23:48;244.88;;;120.13;;
36415;SDS011;22447;44.530;18.620;2023-12-28T11:26:18;250.43;;;123.40;;
36415;SDS011;22447;44.530;18.620;2023-12-28T11:28:45;237.60;;;119.95;;
36415;SDS011;22447;44.530;18.620;2023-12-28T11:31:14;221.25;;;115.07;;
36415;SDS011;22447;44.530;18.620;2023-12-28T11:33:47;245.38;;;121.93;;
36415;SDS011;22447;44.530;18.620;2023-12-28T11:39:09;243.48;;;122.38;;
36415;SDS011;22447;44.530;18.620;2023-12-28T11:41:35;231.63;;;118.35;;
36415;SDS011;22447;44.530;18.620;2023-12-28T11:44:04;233.30;;;119.60;;
36415;SDS011;22447;44.530;18.620;2023-12-28T11:46:31;222.23;;;117.40;;
36415;SDS011;22447;44.530;18.620;2023-12-28T11:49:06;222.30;;;119.38;;
36415;SDS011;22447;44.530;18.620;2023-12-28T11:51:37;228.43;;;123.97;;
36415;SDS011;22447;44.530;18.620;2023-12-28T11:54:04;237.05;;;123.57;;
36415;SDS011;22447;44.530;18.620;2023-12-28T11:56:31;247.50;;;127.93;;
36415;SDS011;22447;44.530;18.620;2023-12-28T11:59:00;290.95;;;139.73;;
36415;SDS011;22447;44.530;18.620;2023-12-28T12:01:26;323.00;;;148.05;;
36415;SDS011;22447;44.530;18.620;2023-12-28T12:03:51;288.33;;;141.15;;
36415;SDS011;22447;44.530;18.620;2023-12-28T12:06:19;272.20;;;138.68;;
36415;SDS011;22447;44.530;18.620;2023-12-28T12:08:45;259.38;;;134.38;;
36415;SDS011;22447;44.530;18.620;2023-12-28T12:11:12;240.43;;;120.60;;
36415;SDS011;22447;44.530;18.620;2023-12-28T12:13:38;244.52;;;126.15;;
36415;SDS011;22447;44.530;18.620;2023-12-28T12:16:04;236.55;;;119.03;;
36415;SDS011;22447;44.530;18.620;2023-12-28T12:18:34;203.18;;;109.95;;
36415;SDS011;22447;44.530;18.620;2023-12-28T12:21:01;198.98;;;100.28;;
36415;SDS011;22447;44.530;18.620;2023-12-28T12:23:28;223.90;;;117.93;;
36415;SDS011;22447;44.530;18.620;2023-12-28T12:25:54;218.45;;;112.78;;
36415;SDS011;22447;44.530;18.620;2023-12-28T12:31:43;202.63;;;105.50;;
36415;SDS011;22447;44.530;18.620;2023-12-28T12:34:13;217.68;;;101.72;;
36415;SDS011;22447;44.530;18.620;2023-12-28T12:36:42;226.82;;;99.68;;
36415;SDS011;22447;44.530;18.620;2023-12-28T12:39:13;239.98;;;100.82;;
36415;SDS011;22447;44.530;18.620;2023-12-28T12:41:38;220.52;;;101.18;;
36415;SDS011;22447;44.530;18.620;2023-12-28T12:44:05;221.02;;;101.85;;
36415;SDS011;22447;44.530;18.620;2023-12-28T12:46:31;208.13;;;97.90;;
36415;SDS011;22447;44.530;18.620;2023-12-28T12:48:57;177.65;;;91.05;;
36415;SDS011;22447;44.530;18.620;2023-12-28T12:51:27;161.55;;;85.57;;
36415;SDS011;22447;44.530;18.620;2023-12-28T12:53:57;167.77;;;81.38;;
36415;SDS011;22447;44.530;18.620;2023-12-28T12:56:28;153.30;;;82.07;;
36415;SDS011;22447;44.530;18.620;2023-12-28T12:58:55;170.65;;;84.93;;
36415;SDS011;22447;44.530;18.620;2023-12-28T13:01:21;172.82;;;83.95;;
36415;SDS011;22447;44.530;18.620;2023-12-28T13:03:50;181.40;;;89.90;;
36415;SDS011;22447;44.530;18.620;2023-12-28T13:06:16;195.00;;;88.47;;
36415;SDS011;22447;44.530;18.620;2023-12-28T13:08:43;179.93;;;89.13;;
36415;SDS011;22447;44.530;18.620;2023-12-28T13:11:09;178.13;;;92.38;;
36415;SDS011;22447;44.530;18.620;2023-12-28T13:13:35;187.20;;;102.07;;
36415;SDS011;22447;44.530;18.620;2023-12-28T13:16:01;197.18;;;106.88;;
36415;SDS011;22447;44.530;18.620;2023-12-28T13:18:28;192.82;;;104.88;;
36415;SDS011;22447;44.530;18.620;2023-12-28T13:20:54;204.18;;;105.60;;
36415;SDS011;22447;44.530;18.620;2023-12-28T13:23:20;193.75;;;99.63;;
36415;SDS011;22447;44.530;18.620;2023-12-28T13:25:46;191.90;;;100.45;;
36415;SDS011;22447;44.530;18.620;2023-12-28T13:28:12;198.68;;;99.97;;
36415;SDS011;22447;44.530;18.620;2023-12-28T13:30:38;195.07;;;95.18;;
36415;SDS011;22447;44.530;18.620;2023-12-28T13:33:04;180.65;;;95.57;;
36415;SDS011;22447;44.530;18.620;2023-12-28T13:35:31;181.68;;;97.97;;
36415;SDS011;22447;44.530;18.620;2023-12-28T13:38:00;173.98;;;98.55;;
36415;SDS011;22447;44.530;18.620;2023-12-28T13:40:28;186.32;;;99.60;;
36415;SDS011;22447;44.530;18.620;2023-12-28T13:42:56;187.57;;;97.40;;
36415;SDS011;22447;44.530;18.620;2023-12-28T13:45:22;191.48;;;98.43;;
36415;SDS011;22447;44.530;18.620;2023-12-28T13:47:48;179.82;;;94.05;;
36415;SDS011;22447;44.530;18.620;2023-12-28T13:50:14;186.70;;;98.70;;
36415;SDS011;22447;44.530;18.620;2023-12-28T13:52:40;190.57;;;101.95;;
36415;SDS011;22447;44.530;18.620;2023-12-28T13:55:06;205.40;;;109.65;;
36415;SDS011;22447;44.530;18.620;2023-12-28T13:57:32;221.40;;;122.72;;
36415;SDS011;22447;44.530;18.620;2023-12-28T13:59:58;207.85;;;115.38;;